Time;durP1;ratioP1;P1;durP2;ratioP2;P2;SDS_P1;SDS_P2;PMS_P1;PMS_P2;Temp;Humidity;BMP_temperature;BMP_pressure;BME280_temperature;BME280_humidity;BME280_pressure;Samples;Min_cycle;Max_cycle;Signal;HPM_P1;HPM_P2
2023/06/10 00:02:11;;;;;;;7.07;6.47;;;;;;;;;;4954899;29;20216;-72
2023/06/10 00:05:16;;;;;;;8.00;7.20;;;;;;;;;;4956004;29;20528;-73
2023/06/10 00:08:20;;;;;;;10.00;7.10;;;;;;;;;;4954964;29;20252;-73
2023/06/10 00:11:25;;;;;;;7.73;6.93;;;;;;;;;;4955470;29;20240;-73
2023/06/10 00:14:29;;;;;;;8.47;6.50;;;;;;;;;;4956011;29;20199;-73
2023/06/10 00:17:33;;;;;;;7.83;7.13;;;;;;;;;;4955422;29;20567;-73
2023/06/10 00:20:37;;;;;;;8.83;7.43;;;;;;;;;;4955895;29;20187;-73
2023/06/10 00:23:41;;;;;;;8.40;7.40;;;;;;;;;;4955057;29;20183;-73
2023/06/10 00:26:46;;;;;;;7.63;6.83;;;;;;;;;;4954576;29;20183;-73
2023/06/10 00:29:50;;;;;;;7.83;7.03;;;;;;;;;;4955332;29;20207;-73
2023/06/10 00:32:54;;;;;;;8.37;7.43;;;;;;;;;;4954387;29;20207;-72
2023/06/10 00:35:58;;;;;;;8.23;7.43;;;;;;;;;;4955403;29;20202;-72
2023/06/10 00:39:04;;;;;;;8.30;7.50;;;;;;;;;;4954306;29;20199;-72
2023/06/10 00:42:10;;;;;;;8.07;6.73;;;;;;;;;;4954535;29;20215;-73
2023/06/10 00:45:14;;;;;;;7.77;6.73;;;;;;;;;;4954417;28;20180;-72
2023/06/10 00:48:18;;;;;;;8.37;7.57;;;;;;;;;;4955270;29;20215;-72
2023/06/10 00:51:23;;;;;;;7.87;7.10;;;;;;;;;;4954474;29;20223;-72
2023/06/10 00:54:27;;;;;;;7.73;6.93;;;;;;;;;;4954745;29;20635;-73
2023/06/10 00:57:32;;;;;;;8.53;7.33;;;;;;;;;;4954429;29;20180;-72
2023/06/10 01:00:36;;;;;;;9.57;7.90;;;;;;;;;;4954551;29;20623;-73
2023/06/10 01:03:41;;;;;;;8.90;8.00;;;;;;;;;;4954367;29;20175;-73
2023/06/10 01:07:04;;;;;;;8.30;7.37;;;;;;;;;;4954421;29;20516;-73
2023/06/10 01:10:13;;;;;;;8.67;7.77;;;;;;;;;;4954316;29;20196;-73
2023/06/10 01:13:18;;;;;;;9.40;7.70;;;;;;;;;;4954050;29;20346;-73
2023/06/10 01:16:23;;;;;;;9.07;8.00;;;;;;;;;;4955099;29;20191;-73
2023/06/10 01:19:28;;;;;;;9.07;8.17;;;;;;;;;;4954263;29;20179;-73
2023/06/10 01:22:36;;;;;;;9.67;8.63;;;;;;;;;;4954687;29;20219;-73
2023/06/10 01:25:45;;;;;;;9.10;7.80;;;;;;;;;;4954282;29;20188;-73
2023/06/10 01:28:54;;;;;;;9.07;8.17;;;;;;;;;;4943180;29;20223;-73
2023/06/10 01:32:08;;;;;;;8.80;7.93;;;;;;;;;;4954085;29;20690;-73
2023/06/10 01:35:13;;;;;;;9.70;8.77;;;;;;;;;;4953771;29;20192;-73
2023/06/10 01:38:19;;;;;;;9.30;7.77;;;;;;;;;;4954613;29;20188;-73
2023/06/10 01:41:25;;;;;;;9.70;8.70;;;;;;;;;;4953808;29;20223;-73
2023/06/10 01:44:30;;;;;;;9.57;8.30;;;;;;;;;;4943584;29;20175;-73
2023/06/10 01:47:34;;;;;;;9.87;8.57;;;;;;;;;;4954225;29;20660;-73
2023/06/10 01:50:38;;;;;;;8.80;7.93;;;;;;;;;;4953819;29;20643;-73
2023/06/10 01:53:42;;;;;;;9.13;8.20;;;;;;;;;;4942692;29;20195;-73
2023/06/10 01:56:46;;;;;;;9.77;8.83;;;;;;;;;;4953909;28;20195;-73
2023/06/10 01:59:51;;;;;;;10.20;9.20;;;;;;;;;;4957407;29;20179;-73
2023/06/10 02:02:55;;;;;;;9.93;8.30;;;;;;;;;;4958151;29;20203;-73
2023/06/10 02:05:59;;;;;;;9.73;8.73;;;;;;;;;;4956992;29;20207;-73
2023/06/10 02:09:04;;;;;;;9.70;8.70;;;;;;;;;;4956885;29;20227;-73
2023/06/10 02:12:10;;;;;;;9.73;8.63;;;;;;;;;;4957600;29;20571;-73
2023/06/10 02:15:14;;;;;;;10.27;8.83;;;;;;;;;;4956838;29;20176;-73
2023/06/10 02:18:20;;;;;;;10.53;9.00;;;;;;;;;;4957306;29;20241;-73
2023/06/10 02:21:24;;;;;;;10.97;9.03;;;;;;;;;;4957884;29;20220;-73
2023/06/10 02:24:28;;;;;;;8.77;7.97;;;;;;;;;;4956548;29;20214;-74
2023/06/10 02:27:32;;;;;;;10.33;8.60;;;;;;;;;;4945108;29;20199;-73
2023/06/10 02:30:42;;;;;;;9.07;8.17;;;;;;;;;;4956273;29;20199;-74
2023/06/10 02:33:46;;;;;;;8.73;7.93;;;;;;;;;;4956102;29;20188;-73
2023/06/10 02:36:51;;;;;;;10.67;8.10;;;;;;;;;;4945113;29;20187;-74
2023/06/10 02:39:57;;;;;;;9.80;7.80;;;;;;;;;;4946019;29;20202;-73
2023/06/10 02:43:02;;;;;;;8.47;7.67;;;;;;;;;;4935059;29;20183;-73
2023/06/10 02:46:07;;;;;;;8.37;7.53;;;;;;;;;;4956567;29;20184;-73
2023/06/10 02:49:11;;;;;;;10.67;8.40;;;;;;;;;;4945448;29;20203;-72
2023/06/10 02:52:16;;;;;;;8.90;7.43;;;;;;;;;;4956466;29;20222;-72
2023/06/10 02:55:21;;;;;;;9.67;8.23;;;;;;;;;;4957113;29;20180;-73
2023/06/10 02:58:31;;;;;;;9.00;7.93;;;;;;;;;;4956299;29;20659;-72
2023/06/10 03:01:37;;;;;;;10.00;8.10;;;;;;;;;;4955981;29;20223;-73
2023/06/10 03:04:45;;;;;;;8.83;8.00;;;;;;;;;;4955992;29;20184;-73
2023/06/10 03:07:53;;;;;;;8.57;7.67;;;;;;;;;;4945809;28;20620;-72
2023/06/10 03:10:58;;;;;;;10.10;8.70;;;;;;;;;;4955763;29;20223;-73
2023/06/10 03:14:03;;;;;;;8.63;7.67;;;;;;;;;;4955773;29;20202;-73
2023/06/10 03:17:08;;;;;;;11.13;8.40;;;;;;;;;;4932115;29;20203;-73
2023/06/10 03:20:15;;;;;;;9.80;8.00;;;;;;;;;;4955388;29;20199;-73
2023/06/10 03:23:20;;;;;;;8.77;7.87;;;;;;;;;;4955824;29;20175;-73
2023/06/10 03:26:27;;;;;;;8.83;7.93;;;;;;;;;;4944924;29;20179;-73
2023/06/10 03:29:32;;;;;;;9.30;8.33;;;;;;;;;;4955243;29;20235;-73
2023/06/10 03:32:36;;;;;;;9.00;8.10;;;;;;;;;;4956198;29;20581;-72
2023/06/10 03:35:41;;;;;;;9.17;8.27;;;;;;;;;;4955610;28;20199;-73
2023/06/10 03:38:45;;;;;;;9.93;8.23;;;;;;;;;;4955217;29;20180;-73
2023/06/10 03:41:51;;;;;;;8.93;8.03;;;;;;;;;;4954629;29;20219;-73
2023/06/10 03:44:56;;;;;;;9.03;8.13;;;;;;;;;;4954724;29;20188;-73
2023/06/10 03:48:01;;;;;;;9.37;8.37;;;;;;;;;;4955061;29;20199;-73
2023/06/10 03:51:12;;;;;;;12.27;8.30;;;;;;;;;;4955008;29;20219;-73
2023/06/10 03:54:16;;;;;;;10.97;8.43;;;;;;;;;;4955618;29;20184;-73
2023/06/10 03:57:20;;;;;;;8.83;7.93;;;;;;;;;;4955062;29;20194;-72
2023/06/10 04:00:25;;;;;;;10.27;8.70;;;;;;;;;;4955200;29;20539;-72
2023/06/10 04:03:29;;;;;;;9.57;8.00;;;;;;;;;;4956011;29;20196;-72
2023/06/10 04:06:33;;;;;;;9.03;8.13;;;;;;;;;;4955871;29;20184;-73
2023/06/10 04:09:37;;;;;;;10.47;8.40;;;;;;;;;;4955711;29;20218;-73
2023/06/10 04:12:42;;;;;;;10.37;8.50;;;;;;;;;;4954815;29;20596;-72
2023/06/10 04:15:46;;;;;;;9.60;8.30;;;;;;;;;;4955841;29;20187;-72
2023/06/10 04:18:54;;;;;;;10.27;8.53;;;;;;;;;;4955013;28;20175;-72
2023/06/10 04:22:01;;;;;;;9.53;8.53;;;;;;;;;;4954694;29;20228;-72
2023/06/10 04:25:05;;;;;;;10.63;7.80;;;;;;;;;;4955435;29;20179;-73
2023/06/10 04:28:09;;;;;;;10.03;8.03;;;;;;;;;;4955315;29;20200;-72
2023/06/10 04:31:14;;;;;;;9.63;8.40;;;;;;;;;;4954930;29;20589;-72
2023/06/10 04:34:20;;;;;;;9.60;8.03;;;;;;;;;;4954516;29;20180;-73
2023/06/10 04:37:24;;;;;;;9.77;8.77;;;;;;;;;;4954517;29;20187;-73
2023/06/10 04:40:28;;;;;;;8.03;7.20;;;;;;;;;;4943988;29;20171;-73
2023/06/10 04:43:32;;;;;;;9.00;8.07;;;;;;;;;;4943613;29;20523;-73
2023/06/10 04:46:38;;;;;;;9.23;8.13;;;;;;;;;;4955118;29;20179;-73
2023/06/10 04:49:43;;;;;;;8.80;7.87;;;;;;;;;;4954569;29;20227;-73
2023/06/10 04:52:47;;;;;;;11.30;8.80;;;;;;;;;;4954259;29;20219;-73
2023/06/10 04:55:51;;;;;;;10.40;8.40;;;;;;;;;;4954483;29;20190;-73
2023/06/10 04:58:59;;;;;;;9.97;8.97;;;;;;;;;;4943937;29;20186;-74
2023/06/10 05:02:06;;;;;;;9.70;8.43;;;;;;;;;;4954895;29;20215;-73
2023/06/10 05:05:10;;;;;;;10.67;8.67;;;;;;;;;;4954137;29;20188;-73
2023/06/10 05:08:15;;;;;;;10.35;9.25;;;;;;;;;;4955102;29;20183;-73
2023/06/10 05:11:19;;;;;;;10.17;9.13;;;;;;;;;;4954993;29;20215;-74
2023/06/10 05:14:24;;;;;;;11.17;9.63;;;;;;;;;;4954850;29;20190;-73
2023/06/10 05:17:28;;;;;;;10.10;8.50;;;;;;;;;;4954533;29;20195;-73
2023/06/10 05:20:33;;;;;;;10.70;8.57;;;;;;;;;;4932431;29;20186;-73
2023/06/10 05:23:37;;;;;;;12.10;8.57;;;;;;;;;;4954243;29;20651;-73
2023/06/10 05:26:41;;;;;;;9.43;8.43;;;;;;;;;;4954952;29;20191;-73
2023/06/10 05:29:46;;;;;;;8.83;7.93;;;;;;;;;;4953960;29;20231;-73
2023/06/10 05:32:51;;;;;;;8.33;7.47;;;;;;;;;;4957406;28;20564;-73
2023/06/10 05:35:55;;;;;;;12.23;7.83;;;;;;;;;;4959151;29;20176;-73
2023/06/10 05:38:59;;;;;;;8.60;7.77;;;;;;;;;;4946840;29;20185;-74
2023/06/10 05:42:06;;;;;;;8.67;7.33;;;;;;;;;;4958098;29;20223;-73
2023/06/10 05:45:11;;;;;;;9.10;8.20;;;;;;;;;;4957236;29;20183;-74
2023/06/10 05:48:15;;;;;;;9.90;8.67;;;;;;;;;;4958012;29;20188;-73
2023/06/10 05:51:19;;;;;;;9.43;7.77;;;;;;;;;;4955561;29;20211;-73
2023/06/10 05:54:23;;;;;;;8.90;7.23;;;;;;;;;;4955992;29;20187;-74
2023/06/10 05:57:28;;;;;;;7.70;6.90;;;;;;;;;;4956373;29;20532;-74
2023/06/10 06:00:32;;;;;;;7.87;6.87;;;;;;;;;;4956861;29;20192;-73
2023/06/10 06:03:36;;;;;;;6.97;6.27;;;;;;;;;;4957361;29;20203;-73
2023/06/10 06:06:41;;;;;;;8.03;6.13;;;;;;;;;;4951757;29;20203;-71
2023/06/10 06:09:45;;;;;;;7.47;6.77;;;;;;;;;;4955696;29;20207;-71
2023/06/10 06:12:49;;;;;;;7.90;7.10;;;;;;;;;;4955546;29;20218;-71
2023/06/10 06:15:53;;;;;;;9.57;6.37;;;;;;;;;;4957123;29;20195;-71
2023/06/10 06:18:57;;;;;;;7.97;6.17;;;;;;;;;;4946332;29;20183;-71
2023/06/10 06:22:02;;;;;;;7.23;6.53;;;;;;;;;;4957218;29;20223;-73
2023/06/10 06:25:06;;;;;;;6.03;5.43;;;;;;;;;;4957794;29;20184;-73
2023/06/10 06:28:10;;;;;;;8.20;7.40;;;;;;;;;;4957008;29;20207;-74
2023/06/10 06:31:15;;;;;;;7.53;6.80;;;;;;;;;;4957865;29;20674;-72
2023/06/10 06:34:19;;;;;;;8.50;7.70;;;;;;;;;;4956790;29;20176;-74
2023/06/10 06:37:24;;;;;;;7.63;6.80;;;;;;;;;;4956672;29;20180;-73
2023/06/10 06:40:35;;;;;;;7.90;6.30;;;;;;;;;;4955899;29;20532;-72
2023/06/10 06:43:39;;;;;;;8.13;7.07;;;;;;;;;;4952695;28;20188;-72
2023/06/10 06:47:03;;;;;;;8.70;6.87;;;;;;;;;;4954621;29;20192;-73
2023/06/10 06:50:08;;;;;;;7.53;6.83;;;;;;;;;;4955316;29;20207;-73
2023/06/10 06:53:12;;;;;;;7.57;6.83;;;;;;;;;;4956475;29;20183;-73
2023/06/10 06:56:17;;;;;;;9.97;6.93;;;;;;;;;;4957062;29;20532;-73
2023/06/10 06:59:21;;;;;;;7.17;6.47;;;;;;;;;;4938254;29;20647;-73
2023/06/10 07:02:25;;;;;;;7.90;6.43;;;;;;;;;;4954600;29;20725;-73
2023/06/10 07:05:30;;;;;;;7.70;6.57;;;;;;;;;;4956506;29;20195;-72
2023/06/10 07:08:34;;;;;;;7.47;6.60;;;;;;;;;;4950317;29;20188;-73
2023/06/10 07:11:39;;;;;;;7.53;6.03;;;;;;;;;;4950799;29;20215;-73
2023/06/10 07:14:43;;;;;;;7.13;6.23;;;;;;;;;;4954663;29;20191;-73
2023/06/10 07:17:47;;;;;;;5.57;5.03;;;;;;;;;;4953631;29;20187;-73
2023/06/10 07:20:51;;;;;;;6.80;4.70;;;;;;;;;;4954084;29;20212;-73
2023/06/10 07:23:56;;;;;;;5.83;5.23;;;;;;;;;;4953855;29;20207;-73
2023/06/10 07:27:00;;;;;;;10.80;5.17;;;;;;;;;;4955066;29;20180;-73
2023/06/10 07:30:07;;;;;;;5.17;4.30;;;;;;;;;;4955715;29;20227;-73
2023/06/10 07:33:12;;;;;;;5.87;5.10;;;;;;;;;;4955614;29;20191;-72
2023/06/10 07:36:15;;;;;;;5.83;5.27;;;;;;;;;;4956024;29;20191;-73
2023/06/10 07:39:19;;;;;;;5.73;5.00;;;;;;;;;;4953036;29;20191;-74
2023/06/10 07:42:24;;;;;;;6.03;5.30;;;;;;;;;;4936471;29;20231;-73
2023/06/10 07:45:28;;;;;;;5.97;5.33;;;;;;;;;;4947472;29;20202;-73
2023/06/10 07:48:32;;;;;;;5.97;4.72;;;;;;;;;;4943504;29;20203;-73
2023/06/10 07:51:36;;;;;;;5.72;5.20;;;;;;;;;;4952777;29;20212;-73
2023/06/10 07:54:40;;;;;;;4.53;4.13;;;;;;;;;;4952442;28;20185;-73
2023/06/10 07:57:44;;;;;;;4.20;3.80;;;;;;;;;;4955639;29;20192;-73
2023/06/10 08:00:49;;;;;;;6.10;4.32;;;;;;;;;;4954581;29;20201;-73
2023/06/10 08:03:53;;;;;;;4.97;4.47;;;;;;;;;;4955458;29;20185;-74
2023/06/10 08:06:57;;;;;;;5.20;4.13;;;;;;;;;;4952263;29;20188;-73
2023/06/10 08:10:02;;;;;;;4.25;3.85;;;;;;;;;;4953546;29;20201;-74
2023/06/10 08:13:07;;;;;;;5.07;4.15;;;;;;;;;;4935825;29;20190;-74
2023/06/10 08:16:12;;;;;;;6.57;5.00;;;;;;;;;;4936700;29;20178;-74
2023/06/10 08:19:16;;;;;;;4.95;4.40;;;;;;;;;;4936676;29;20535;-74
2023/06/10 08:22:20;;;;;;;5.05;4.65;;;;;;;;;;4936659;29;20305;-74
2023/06/10 08:25:24;;;;;;;5.05;4.55;;;;;;;;;;4936612;29;20192;-74
2023/06/10 08:28:29;;;;;;;5.30;4.35;;;;;;;;;;4936327;29;20182;-74
2023/06/10 08:31:33;;;;;;;5.63;4.55;;;;;;;;;;4925022;29;20230;-73
2023/06/10 08:34:37;;;;;;;4.10;3.72;;;;;;;;;;4946408;29;20202;-74
2023/06/10 08:37:41;;;;;;;5.63;4.20;;;;;;;;;;4935875;29;20200;-74
2023/06/10 08:40:45;;;;;;;4.97;4.47;;;;;;;;;;4935029;29;20185;-74
2023/06/10 08:44:09;;;;;;;4.90;4.45;;;;;;;;;;4935992;29;20183;-73
2023/06/10 08:47:15;;;;;;;5.70;4.78;;;;;;;;;;4936300;29;20195;-74
2023/06/10 08:50:19;;;;;;;4.78;4.25;;;;;;;;;;4935876;29;20229;-73
2023/06/10 08:53:26;;;;;;;7.32;4.53;;;;;;;;;;4935502;29;20187;-73
2023/06/10 08:56:35;;;;;;;4.25;3.90;;;;;;;;;;4935830;29;20185;-73
2023/06/10 08:59:40;;;;;;;6.45;4.75;;;;;;;;;;4936111;29;20185;-73
2023/06/10 09:02:45;;;;;;;4.72;3.88;;;;;;;;;;4947243;29;20224;-73
2023/06/10 09:05:50;;;;;;;4.43;4.03;;;;;;;;;;4954752;28;20521;-74
2023/06/10 09:08:55;;;;;;;15.15;4.75;;;;;;;;;;4938204;29;20502;-74
2023/06/10 09:11:59;;;;;;;4.90;4.38;;;;;;;;;;4927913;29;20230;-73
2023/06/10 09:15:04;;;;;;;8.68;5.20;;;;;;;;;;4939878;29;20182;-74
2023/06/10 09:18:09;;;;;;;4.03;3.63;;;;;;;;;;4950344;29;20183;-73
2023/06/10 09:21:13;;;;;;;4.53;4.00;;;;;;;;;;4939583;29;20563;-73
2023/06/10 09:24:18;;;;;;;4.43;4.03;;;;;;;;;;4939696;29;20204;-70
2023/06/10 09:27:22;;;;;;;4.10;3.70;;;;;;;;;;4939852;29;20227;-75
2023/06/10 09:30:31;;;;;;;3.97;3.30;;;;;;;;;;4939196;29;20227;-73
2023/06/10 09:33:39;;;;;;;4.75;3.70;;;;;;;;;;4939392;29;20183;-73
2023/06/10 09:36:44;;;;;;;6.65;3.83;;;;;;;;;;4939229;29;20776;-73
2023/06/10 09:40:05;;;;;;;4.50;3.30;;;;;;;;;;4939285;29;20204;-74
2023/06/10 09:43:12;;;;;;;3.80;3.50;;;;;;;;;;4942350;29;20188;-73
2023/06/10 09:46:19;;;;;;;4.18;3.60;;;;;;;;;;4958083;29;20192;-74
2023/06/10 09:49:23;;;;;;;5.32;3.58;;;;;;;;;;4958273;29;20183;-74
2023/06/10 09:52:29;;;;;;;4.18;3.50;;;;;;;;;;4946066;29;20212;-74
2023/06/10 09:55:34;;;;;;;6.03;3.13;;;;;;;;;;4957745;29;20199;-73
2023/06/10 09:58:39;;;;;;;4.47;3.78;;;;;;;;;;4955556;29;20198;-73
2023/06/10 10:01:43;;;;;;;3.95;3.63;;;;;;;;;;4956842;29;20215;-73
2023/06/10 10:04:47;;;;;;;4.28;3.97;;;;;;;;;;4954969;29;20552;-73
2023/06/10 10:07:52;;;;;;;9.20;4.50;;;;;;;;;;4937985;29;20179;-73
2023/06/10 10:10:56;;;;;;;6.88;4.55;;;;;;;;;;4938318;29;20231;-73
2023/06/10 10:14:03;;;;;;;4.35;3.95;;;;;;;;;;4938726;29;20189;-72
2023/06/10 10:17:11;;;;;;;4.18;3.80;;;;;;;;;;4938400;29;20186;-73
2023/06/10 10:20:20;;;;;;;4.53;4.13;;;;;;;;;;4938288;29;20178;-73
2023/06/10 10:23:34;;;;;;;5.82;3.70;;;;;;;;;;4938657;29;20183;-73
2023/06/10 10:26:39;;;;;;;5.87;3.73;;;;;;;;;;4937377;29;20193;-73
2023/06/10 10:29:47;;;;;;;4.20;3.90;;;;;;;;;;4938393;29;20208;-73
2023/06/10 10:33:06;;;;;;;4.70;4.30;;;;;;;;;;4938059;29;20219;-73
2023/06/10 10:36:10;;;;;;;4.20;3.80;;;;;;;;;;4937791;29;20185;-72
2023/06/10 10:39:15;;;;;;;4.27;3.87;;;;;;;;;;4941977;29;20199;-73
2023/06/10 10:42:19;;;;;;;7.47;4.73;;;;;;;;;;4937276;29;20223;-73
2023/06/10 10:45:24;;;;;;;5.03;4.23;;;;;;;;;;4937921;29;20528;-73
2023/06/10 10:48:36;;;;;;;5.97;4.90;;;;;;;;;;4938111;29;20186;-73
2023/06/10 10:51:57;;;;;;;5.57;4.83;;;;;;;;;;4938083;29;20238;-73
2023/06/10 10:55:12;;;;;;;7.30;4.50;;;;;;;;;;4937664;29;20185;-73
2023/06/10 10:58:16;;;;;;;5.00;4.50;;;;;;;;;;4952429;29;20204;-73
2023/06/10 11:01:20;;;;;;;8.27;4.70;;;;;;;;;;4954355;29;20215;-73
2023/06/10 11:04:26;;;;;;;9.40;4.57;;;;;;;;;;4956528;29;20183;-73
2023/06/10 11:07:31;;;;;;;4.53;4.13;;;;;;;;;;4955761;29;20188;-73
2023/06/10 11:10:37;;;;;;;4.97;4.53;;;;;;;;;;4955217;29;20210;-73
2023/06/10 11:14:08;;;;;;;4.63;4.23;;;;;;;;;;4955374;29;20188;-73
2023/06/10 11:17:22;;;;;;;6.17;4.40;;;;;;;;;;4957162;29;20634;-73
2023/06/10 11:20:50;;;;;;;4.87;4.47;;;;;;;;;;4956766;29;20185;-74
2023/06/10 11:23:58;;;;;;;4.60;4.20;;;;;;;;;;4956722;29;20194;-73
2023/06/10 11:27:19;;;;;;;5.27;4.70;;;;;;;;;;4956375;29;20191;-73
2023/06/10 11:30:25;;;;;;;6.73;4.90;;;;;;;;;;4956126;28;20673;-73
2023/06/10 11:33:30;;;;;;;5.17;4.17;;;;;;;;;;4956125;29;20183;-73
2023/06/10 11:36:40;;;;;;;8.50;4.70;;;;;;;;;;4956048;29;20180;-73
2023/06/10 11:39:44;;;;;;;5.03;3.83;;;;;;;;;;4956432;29;20191;-73
2023/06/10 11:42:48;;;;;;;6.97;4.60;;;;;;;;;;4955862;29;20216;-73
2023/06/10 11:45:56;;;;;;;5.67;4.00;;;;;;;;;;4956034;29;20195;-73
2023/06/10 11:49:02;;;;;;;6.07;4.10;;;;;;;;;;4956376;29;20191;-73
2023/06/10 11:52:06;;;;;;;4.83;4.43;;;;;;;;;;4956060;29;20230;-73
2023/06/10 11:55:11;;;;;;;5.00;4.50;;;;;;;;;;4955017;29;20181;-72
2023/06/10 11:58:17;;;;;;;4.73;4.17;;;;;;;;;;4955806;28;20219;-73
2023/06/10 12:01:22;;;;;;;5.37;4.20;;;;;;;;;;4955197;29;20555;-73
2023/06/10 12:04:26;;;;;;;4.77;3.93;;;;;;;;;;4956006;29;20628;-73
2023/06/10 12:07:30;;;;;;;4.97;4.43;;;;;;;;;;4954853;29;20190;-73
2023/06/10 12:10:42;;;;;;;5.17;4.50;;;;;;;;;;4956212;29;20182;-73
2023/06/10 12:13:50;;;;;;;4.78;4.35;;;;;;;;;;4955659;29;20193;-73
2023/06/10 12:16:56;;;;;;;4.20;3.80;;;;;;;;;;4955359;29;20191;-73
2023/06/10 12:20:01;;;;;;;6.75;4.15;;;;;;;;;;4952148;29;20194;-73
2023/06/10 12:23:10;;;;;;;7.07;4.22;;;;;;;;;;4955195;29;20528;-73
2023/06/10 12:26:14;;;;;;;8.18;4.00;;;;;;;;;;4955552;29;20195;-73
2023/06/10 12:29:22;;;;;;;5.05;4.07;;;;;;;;;;4954533;29;20214;-73
2023/06/10 12:32:44;;;;;;;3.92;3.60;;;;;;;;;;4955653;29;20232;-73
2023/06/10 12:35:49;;;;;;;4.30;3.63;;;;;;;;;;4954442;29;20184;-74
2023/06/10 12:39:02;;;;;;;4.63;4.22;;;;;;;;;;4954684;29;20182;-74
2023/06/10 12:42:09;;;;;;;8.85;4.15;;;;;;;;;;4954531;28;20212;-72
2023/06/10 12:45:13;;;;;;;4.15;3.75;;;;;;;;;;4955456;29;20183;-74
2023/06/10 12:48:20;;;;;;;7.50;4.15;;;;;;;;;;4954834;29;20181;-73
2023/06/10 12:51:25;;;;;;;4.10;3.70;;;;;;;;;;4955237;29;20227;-73
2023/06/10 12:54:29;;;;;;;4.38;4.00;;;;;;;;;;4955297;29;20183;-73
2023/06/10 12:57:33;;;;;;;7.03;3.72;;;;;;;;;;4955562;29;20177;-74
2023/06/10 13:00:37;;;;;;;3.88;3.47;;;;;;;;;;4954911;29;20184;-74
2023/06/10 13:03:42;;;;;;;4.40;4.00;;;;;;;;;;4954946;29;20182;-74
2023/06/10 13:06:47;;;;;;;3.97;3.63;;;;;;;;;;4954927;29;20185;-74
2023/06/10 13:09:52;;;;;;;3.72;3.40;;;;;;;;;;4954415;29;20189;-74
2023/06/10 13:12:56;;;;;;;3.95;3.15;;;;;;;;;;4943266;29;20582;-72
2023/06/10 13:16:01;;;;;;;4.20;3.20;;;;;;;;;;4955402;29;20184;-72
2023/06/10 13:19:05;;;;;;;4.13;3.63;;;;;;;;;;4954038;29;20525;-72
2023/06/10 13:22:10;;;;;;;4.15;3.75;;;;;;;;;;4955246;29;20220;-72
2023/06/10 13:25:14;;;;;;;3.22;2.75;;;;;;;;;;4954992;29;20541;-72
2023/06/10 13:28:18;;;;;;;3.72;3.38;;;;;;;;;;4954621;29;20176;-72
2023/06/10 13:31:21;;;;;;;3.33;3.03;;;;;;;;;;4954161;29;20220;-71
2023/06/10 13:34:26;;;;;;;3.13;2.83;;;;;;;;;;4954896;29;20203;-71
2023/06/10 13:37:30;;;;;;;3.75;2.95;;;;;;;;;;4954956;29;20514;-71
2023/06/10 13:40:34;;;;;;;3.58;2.92;;;;;;;;;;4955100;29;20184;-72
2023/06/10 13:43:38;;;;;;;3.40;3.10;;;;;;;;;;4954880;29;20175;-71
2023/06/10 13:46:42;;;;;;;2.88;2.67;;;;;;;;;;4954371;29;20623;-71
2023/06/10 13:49:46;;;;;;;3.42;2.55;;;;;;;;;;4954832;29;20180;-72
2023/06/10 13:52:51;;;;;;;2.75;2.55;;;;;;;;;;4956485;28;20223;-72
2023/06/10 13:55:55;;;;;;;2.92;2.63;;;;;;;;;;4957776;29;20188;-71
2023/06/10 13:58:59;;;;;;;3.53;2.75;;;;;;;;;;4958595;29;20180;-71
2023/06/10 14:02:03;;;;;;;3.10;2.90;;;;;;;;;;4957796;29;20216;-71
2023/06/10 14:05:08;;;;;;;3.60;2.88;;;;;;;;;;4957899;29;20188;-72
2023/06/10 14:08:13;;;;;;;3.10;2.80;;;;;;;;;;4958332;29;20184;-72
2023/06/10 14:11:17;;;;;;;3.33;3.10;;;;;;;;;;4956960;29;20566;-71
2023/06/10 14:14:22;;;;;;;6.68;3.78;;;;;;;;;;4957981;29;20180;-71
2023/06/10 14:17:26;;;;;;;14.63;4.63;;;;;;;;;;4957669;29;20188;-71
2023/06/10 14:20:31;;;;;;;16.38;4.78;;;;;;;;;;4956895;29;20200;-72
2023/06/10 14:23:35;;;;;;;9.82;5.35;;;;;;;;;;4957698;29;20184;-73
2023/06/10 14:26:39;;;;;;;8.57;4.60;;;;;;;;;;4957409;29;20198;-73
2023/06/10 14:29:43;;;;;;;8.23;5.05;;;;;;;;;;4957221;29;20205;-73
2023/06/10 14:32:47;;;;;;;10.20;4.90;;;;;;;;;;4956898;29;20222;-72
2023/06/10 14:35:51;;;;;;;5.70;5.20;;;;;;;;;;4957647;29;20194;-73
2023/06/10 14:38:57;;;;;;;10.48;5.80;;;;;;;;;;4957417;29;20194;-73
2023/06/10 14:42:01;;;;;;;6.35;5.60;;;;;;;;;;4957255;29;20714;-73
2023/06/10 14:45:06;;;;;;;5.45;4.95;;;;;;;;;;4957094;29;20202;-73
2023/06/10 14:48:11;;;;;;;6.35;5.20;;;;;;;;;;4956920;29;20207;-73
2023/06/10 14:51:15;;;;;;;5.80;5.30;;;;;;;;;;4957236;29;20691;-73
2023/06/10 14:54:19;;;;;;;5.65;4.95;;;;;;;;;;4956957;29;20180;-73
2023/06/10 14:57:24;;;;;;;5.78;4.32;;;;;;;;;;4956792;29;20186;-73
2023/06/10 15:00:27;;;;;;;4.82;4.43;;;;;;;;;;4956806;29;20185;-72
2023/06/10 15:03:31;;;;;;;5.22;4.72;;;;;;;;;;4956604;28;20525;-73
2023/06/10 15:06:36;;;;;;;4.90;4.50;;;;;;;;;;4956682;29;20179;-73
2023/06/10 15:09:40;;;;;;;4.50;3.63;;;;;;;;;;4956594;29;20184;-72
2023/06/10 15:12:44;;;;;;;4.82;3.72;;;;;;;;;;4955691;29;20234;-72
2023/06/10 15:15:48;;;;;;;6.90;4.00;;;;;;;;;;4956829;29;20181;-73
2023/06/10 15:18:52;;;;;;;5.00;3.40;;;;;;;;;;4956678;29;20201;-72
2023/06/10 15:21:56;;;;;;;4.57;4.03;;;;;;;;;;4956782;29;20219;-73
2023/06/10 15:25:00;;;;;;;4.93;4.20;;;;;;;;;;4956571;29;20188;-72
2023/06/10 15:28:05;;;;;;;4.53;3.72;;;;;;;;;;4956509;29;20193;-73
2023/06/10 15:31:09;;;;;;;3.83;3.53;;;;;;;;;;4955606;29;20216;-72
2023/06/10 15:34:13;;;;;;;6.18;3.60;;;;;;;;;;4956666;29;20179;-72
2023/06/10 15:37:18;;;;;;;4.22;3.83;;;;;;;;;;4956268;29;20189;-73
2023/06/10 15:40:21;;;;;;;8.43;4.50;;;;;;;;;;4955697;29;20187;-73
2023/06/10 15:43:26;;;;;;;5.13;4.17;;;;;;;;;;4955962;29;20184;-72
2023/06/10 15:46:30;;;;;;;5.60;4.63;;;;;;;;;;4956477;29;20177;-72
2023/06/10 15:49:34;;;;;;;6.07;4.50;;;;;;;;;;4956208;29;20186;-72
2023/06/10 15:52:39;;;;;;;4.47;4.07;;;;;;;;;;4956353;29;20225;-73
2023/06/10 15:55:43;;;;;;;6.60;4.40;;;;;;;;;;4956111;29;20204;-72
2023/06/10 15:58:47;;;;;;;4.87;4.37;;;;;;;;;;4955179;29;20205;-73
2023/06/10 16:01:51;;;;;;;4.83;4.27;;;;;;;;;;4955806;29;20221;-73
2023/06/10 16:04:56;;;;;;;4.87;4.37;;;;;;;;;;4956371;29;20203;-73
2023/06/10 16:08:00;;;;;;;7.03;3.97;;;;;;;;;;4955485;29;20505;-73
2023/06/10 16:11:04;;;;;;;5.77;4.27;;;;;;;;;;4955836;29;20568;-73
2023/06/10 16:14:08;;;;;;;4.90;4.50;;;;;;;;;;4954867;29;20186;-72
2023/06/10 16:17:12;;;;;;;6.97;5.13;;;;;;;;;;4955353;29;20250;-72
2023/06/10 16:20:16;;;;;;;5.50;5.00;;;;;;;;;;4954966;29;20188;-72
2023/06/10 16:23:20;;;;;;;5.67;4.80;;;;;;;;;;4954654;29;20175;-73
2023/06/10 16:26:24;;;;;;;5.70;4.83;;;;;;;;;;4954400;29;20195;-72
2023/06/10 16:29:28;;;;;;;6.57;5.00;;;;;;;;;;4954715;29;20215;-72
2023/06/10 16:32:32;;;;;;;5.73;5.17;;;;;;;;;;4955253;29;20616;-72
2023/06/10 16:35:36;;;;;;;5.43;4.93;;;;;;;;;;4954718;29;20180;-72
2023/06/10 16:38:41;;;;;;;5.47;4.83;;;;;;;;;;4955466;29;20525;-72
2023/06/10 16:41:45;;;;;;;5.53;4.80;;;;;;;;;;4955412;29;20215;-72
2023/06/10 16:44:49;;;;;;;4.93;4.47;;;;;;;;;;4954661;29;20516;-72
2023/06/10 16:47:54;;;;;;;5.00;4.57;;;;;;;;;;4954344;29;20200;-73
2023/06/10 16:50:58;;;;;;;5.50;5.00;;;;;;;;;;4954743;29;20677;-73
2023/06/10 16:54:02;;;;;;;4.37;3.70;;;;;;;;;;4955391;29;20208;-73
2023/06/10 16:57:06;;;;;;;4.40;3.90;;;;;;;;;;4984275;23;20247;-72
2023/06/10 17:00:10;;;;;;;5.97;3.87;;;;;;;;;;4974310;28;20188;-72
2023/06/10 17:03:15;;;;;;;4.67;4.27;;;;;;;;;;4954367;29;20180;-72
2023/06/10 17:06:19;;;;;;;5.03;3.47;;;;;;;;;;4954891;29;20187;-72
2023/06/10 17:09:23;;;;;;;5.73;4.27;;;;;;;;;;4954026;29;20183;-72
2023/06/10 17:12:27;;;;;;;4.60;4.20;;;;;;;;;;4954950;29;20227;-72
2023/06/10 17:15:31;;;;;;;4.97;4.50;;;;;;;;;;4955071;29;20183;-73
2023/06/10 17:18:35;;;;;;;5.23;4.73;;;;;;;;;;4965267;28;20203;-72
2023/06/10 17:21:40;;;;;;;4.47;4.07;;;;;;;;;;4954447;29;20551;-74
2023/06/10 17:24:44;;;;;;;5.53;4.53;;;;;;;;;;4954684;29;20203;-75
2023/06/10 17:27:49;;;;;;;7.83;4.63;;;;;;;;;;4967207;28;20183;-74
2023/06/10 17:30:53;;;;;;;5.00;4.47;;;;;;;;;;4957676;29;20218;-74
2023/06/10 17:33:57;;;;;;;6.13;4.33;;;;;;;;;;4958333;29;20211;-73
2023/06/10 17:37:02;;;;;;;6.57;5.07;;;;;;;;;;4958390;29;20202;-73
2023/06/10 17:40:07;;;;;;;6.40;4.90;;;;;;;;;;4958836;29;20199;-73
2023/06/10 17:43:11;;;;;;;6.40;4.40;;;;;;;;;;4958683;29;20175;-73
2023/06/10 17:46:15;;;;;;;7.63;4.57;;;;;;;;;;4958298;29;20203;-73
2023/06/10 17:49:23;;;;;;;5.43;4.63;;;;;;;;;;4957485;29;20203;-73
2023/06/10 17:52:27;;;;;;;4.80;4.40;;;;;;;;;;4968708;28;20227;-72
2023/06/10 17:55:32;;;;;;;5.40;4.90;;;;;;;;;;4957991;29;20208;-73
2023/06/10 17:58:36;;;;;;;4.67;4.23;;;;;;;;;;4958074;29;20612;-74
2023/06/10 18:01:40;;;;;;;5.53;4.57;;;;;;;;;;4958273;29;20694;-74
2023/06/10 18:04:45;;;;;;;6.50;4.43;;;;;;;;;;4958260;29;20179;-74
2023/06/10 18:07:50;;;;;;;5.83;4.77;;;;;;;;;;4958741;29;20517;-74
2023/06/10 18:10:54;;;;;;;4.87;4.37;;;;;;;;;;4957234;29;20223;-73
2023/06/10 18:13:58;;;;;;;6.43;4.90;;;;;;;;;;4956220;29;20322;-73
2023/06/10 18:17:02;;;;;;;7.07;5.07;;;;;;;;;;4956055;29;20187;-73
2023/06/10 18:20:07;;;;;;;5.20;4.70;;;;;;;;;;4954702;29;20191;-73
2023/06/10 18:23:11;;;;;;;4.93;4.43;;;;;;;;;;4955480;29;20184;-73
2023/06/10 18:26:16;;;;;;;5.17;4.67;;;;;;;;;;4955520;29;20195;-74
2023/06/10 18:29:20;;;;;;;5.87;5.37;;;;;;;;;;4956792;29;20183;-73